Time;durP1;ratioP1;P1;durP2;ratioP2;P2;SDS_P1;SDS_P2;PMS_P1;PMS_P2;Temp;Humidity;BMP_temperature;BMP_pressure;BME280_temperature;BME280_humidity;BME280_pressure;Samples;Min_cycle;Max_cycle;Signal;HPM_P1;HPM_P2
2024/02/17 00:01:45;;;;;;;;;;;;;;;3.98;100.00;95489.16;10513513;28;19912;-78
2024/02/17 00:06:45;;;;;;;;;;;;;;;4.00;100.00;95498.56;10498302;28;19920;-78
2024/02/17 00:11:46;;;;;;;;;;;;;;;3.90;100.00;95493.69;10517155;28;19919;-78
2024/02/17 00:16:46;;;;;;;;;;;;;;;3.93;100.00;95498.63;10514807;28;20289;-75
2024/02/17 00:21:46;;;;;;;;;;;;;;;3.82;100.00;95498.47;10496042;28;19990;-75
2024/02/17 00:26:48;;;;;;;;;;;;;;;3.81;100.00;95497.66;10515316;28;19912;-77
2024/02/17 00:31:50;;;;;;;;;;;;;;;3.55;100.00;95502.03;10515729;28;19916;-77
2024/02/17 00:36:50;;;;;;;;;;;;;;;3.34;100.00;95499.66;10515400;28;20359;-76
2024/02/17 00:41:51;;;;;;;;;;;;;;;3.18;100.00;95499.09;10515808;28;19915;-78
2024/02/17 00:46:51;;;;;;;;;;;;;;;3.23;100.00;95496.59;10514982;28;20046;-74
2024/02/17 00:51:52;;;;;;;;;;;;;;;3.14;100.00;95505.00;10514469;28;20402;-76
2024/02/17 00:56:52;;;;;;;;;;;;;;;3.05;100.00;95504.41;10495495;28;19920;-75
2024/02/17 01:01:54;;;;;;;;;;;;;;;2.93;100.00;95496.25;10472635;28;19976;-76
2024/02/17 01:06:54;;;;;;;;;;;;;;;2.96;100.00;95509.13;10483387;28;19973;-75
2024/02/17 01:11:55;;;;;;;;;;;;;;;2.87;100.00;95505.03;10481454;28;20616;-74
2024/02/17 01:16:55;;;;;;;;;;;;;;;2.68;100.00;95501.34;10513182;28;20337;-76
2024/02/17 01:21:55;;;;;;;;;;;;;;;2.81;100.00;95508.53;10513129;28;20019;-76
2024/02/17 01:26:55;;;;;;;;;;;;;;;2.74;100.00;95500.56;10513407;28;20339;-76
2024/02/17 01:31:57;;;;;;;;;;;;;;;2.60;100.00;95504.25;10507131;28;19912;-76
2024/02/17 01:36:57;;;;;;;;;;;;;;;2.51;100.00;95501.78;10509083;28;20000;-76
2024/02/17 01:41:57;;;;;;;;;;;;;;;2.50;100.00;95509.97;10509357;28;19916;-76
2024/02/17 01:46:58;;;;;;;;;;;;;;;2.31;100.00;95512.38;10509541;28;19923;-78
2024/02/17 01:51:59;;;;;;;;;;;;;;;2.13;100.00;95504.97;10509023;28;19928;-76
2024/02/17 01:57:00;;;;;;;;;;;;;;;2.14;100.00;95501.31;10508521;28;19971;-75
2024/02/17 02:02:01;;;;;;;;;;;;;;;1.97;100.00;95508.03;10509504;28;19995;-79
2024/02/17 02:07:02;;;;;;;;;;;;;;;1.82;100.00;95508.19;10511567;28;19916;-77
2024/02/17 02:12:02;;;;;;;;;;;;;;;1.88;100.00;95502.91;10511619;28;19924;-76
2024/02/17 02:17:03;;;;;;;;;;;;;;;1.99;100.00;95513.94;10511700;28;20392;-76
2024/02/17 02:22:03;;;;;;;;;;;;;;;2.02;100.00;95510.88;10508387;28;19943;-76
2024/02/17 02:27:03;;;;;;;;;;;;;;;2.02;100.00;95516.19;10488026;28;20362;-76
2024/02/17 02:32:04;;;;;;;;;;;;;;;1.83;100.00;95518.56;10508622;28;19912;-76
2024/02/17 02:37:05;;;;;;;;;;;;;;;1.60;100.00;95505.63;10510358;28;19916;-76
2024/02/17 02:42:05;;;;;;;;;;;;;;;1.63;100.00;95520.31;10509993;28;19919;-77
2024/02/17 02:47:05;;;;;;;;;;;;;;;1.63;100.00;95521.16;10510057;28;19916;-77
2024/02/17 02:52:05;;;;;;;;;;;;;;;1.61;100.00;95517.06;10496179;28;20410;-77
2024/02/17 02:57:06;;;;;;;;;;;;;;;1.57;100.00;95521.13;10475425;28;19977;-77
2024/02/17 03:02:06;;;;;;;;;;;;;;;1.39;100.00;95525.09;10487513;28;19916;-75
2024/02/17 03:07:06;;;;;;;;;;;;;;;1.49;100.00;95530.03;10507571;28;20386;-77
2024/02/17 03:12:06;;;;;;;;;;;;;;;1.56;100.00;95535.38;10505221;28;20369;-77
2024/02/17 03:17:07;;;;;;;;;;;;;;;1.48;100.00;95536.34;10480978;28;19920;-76
2024/02/17 03:22:07;;;;;;;;;;;;;;;1.24;100.00;95540.31;10491847;28;20399;-77
2024/02/17 03:27:07;;;;;;;;;;;;;;;1.26;100.00;95540.94;10489005;28;19984;-76
2024/02/17 03:32:08;;;;;;;;;;;;;;;1.19;100.00;95544.34;10508648;28;19985;-76
2024/02/17 03:37:08;;;;;;;;;;;;;;;1.19;100.00;95543.53;10508591;28;20433;-75
2024/02/17 03:42:08;;;;;;;;;;;;;;;1.08;100.00;95538.78;10508902;28;20339;-76
2024/02/17 03:47:11;;;;;;;;;;;;;;;1.04;100.00;95540.19;10508216;28;19912;-75
2024/02/17 03:52:11;;;;;;;;;;;;;;;1.05;100.00;95533.84;10508304;28;20351;-76
2024/02/17 03:57:12;;;;;;;;;;;;;;;1.25;100.00;95539.28;10494076;28;19920;-75
2024/02/17 04:02:12;;;;;;;;;;;;;;;1.35;100.00;95537.94;10485826;28;19927;-77
2024/02/17 04:07:12;;;;;;;;;;;;;;;1.39;100.00;95535.69;10489866;28;19912;-78
2024/02/17 04:12:12;;;;;;;;;;;;;;;1.48;100.00;95539.00;10498867;28;19920;-78
2024/02/17 04:17:13;;;;;;;;;;;;;;;1.54;100.00;95533.75;10505278;28;19962;-77
2024/02/17 04:22:13;;;;;;;;;;;;;;;1.60;100.00;95531.31;10505118;28;20322;-78
2024/02/17 04:27:13;;;;;;;;;;;;;;;1.57;100.00;95523.78;10502808;28;20370;-78
2024/02/17 04:32:14;;;;;;;;;;;;;;;1.51;100.00;95520.09;10495711;28;20359;-76
2024/02/17 04:37:14;;;;;;;;;;;;;;;1.51;100.00;95523.53;10495678;28;19974;-76
2024/02/17 04:42:14;;;;;;;;;;;;;;;1.53;100.00;95537.44;10494872;28;19923;-78
2024/02/17 04:47:15;;;;;;;;;;;;;;;1.51;100.00;95539.44;10494210;28;19912;-77
2024/02/17 04:52:17;;;;;;;;;;;;;;;1.21;100.00;95538.06;10511070;28;20425;-77
2024/02/17 04:57:17;;;;;;;;;;;;;;;0.95;100.00;95545.63;10510096;28;19920;-78
2024/02/17 05:02:18;;;;;;;;;;;;;;;0.80;100.00;95556.28;10487830;28;19916;-77
2024/02/17 05:07:18;;;;;;;;;;;;;;;0.71;100.00;95552.13;10500467;28;19916;-77
2024/02/17 05:12:18;;;;;;;;;;;;;;;0.66;100.00;95562.50;10493213;28;19912;-76
2024/02/17 05:17:18;;;;;;;;;;;;;;;0.66;100.00;95557.19;10493219;28;20040;-77
2024/02/17 05:22:19;;;;;;;;;;;;;;;0.72;100.00;95560.91;10499555;28;20378;-76
2024/02/17 05:27:19;;;;;;;;;;;;;;;0.75;100.00;95558.69;10492998;28;19920;-78
2024/02/17 05:32:19;;;;;;;;;;;;;;;0.70;100.00;95565.56;10488304;28;19916;-76
2024/02/17 05:37:20;;;;;;;;;;;;;;;0.65;100.00;95576.72;10502592;28;20271;-76
2024/02/17 05:42:20;;;;;;;;;;;;;;;0.58;100.00;95587.22;10500956;28;19965;-74
2024/02/17 05:47:20;;;;;;;;;;;;;;;0.72;100.00;95590.81;10496728;28;20354;-75
2024/02/17 05:52:21;;;;;;;;;;;;;;;0.99;100.00;95588.38;10489184;28;20011;-74
2024/02/17 05:57:21;;;;;;;;;;;;;;;1.39;100.00;95593.16;10494626;28;19974;-74
2024/02/17 06:02:21;;;;;;;;;;;;;;;1.63;100.00;95602.47;10492870;28;20656;-75
2024/02/17 06:07:22;;;;;;;;;;;;;;;1.86;100.00;95597.69;10495000;28;19917;-73
2024/02/17 06:12:22;;;;;;;;;;;;;;;2.54;100.00;95596.91;10477567;28;19946;-75
2024/02/17 06:17:22;;;;;;;;;;;;;;;2.99;100.00;95603.50;10496960;28;20373;-74
2024/02/17 06:22:22;;;;;;;;;;;;;;;2.79;100.00;95604.28;10497010;28;19920;-75
2024/02/17 06:27:23;;;;;;;;;;;;;;;2.68;100.00;95608.34;10496987;28;20425;-74
2024/02/17 06:32:23;;;;;;;;;;;;;;;2.70;100.00;95616.13;10493108;28;20662;-72
2024/02/17 06:37:23;;;;;;;;;;;;;;;2.70;100.00;95621.41;10490399;28;19924;-72
2024/02/17 06:42:24;;;;;;;;;;;;;;;2.79;100.00;95622.88;10496548;28;20439;-77
2024/02/17 06:47:24;;;;;;;;;;;;;;;3.55;100.00;95623.47;10496537;28;19920;-75
2024/02/17 06:52:24;;;;;;;;;;;;;;;4.84;100.00;95620.91;10494823;28;19928;-75
2024/02/17 06:57:24;;;;;;;;;;;;;;;5.10;100.00;95630.56;10495607;28;20409;-74
2024/02/17 07:02:25;;;;;;;;;;;;;;;6.54;100.00;95617.25;10494976;28;19919;-77
2024/02/17 07:07:25;;;;;;;;;;;;;;;8.52;100.00;95616.00;10482415;28;19920;-74
2024/02/17 07:12:25;;;;;;;;;;;;;;;9.66;87.20;95613.41;10491689;28;19959;-84
2024/02/17 07:17:26;;;;;;;;;;;;;;;10.14;78.26;95610.31;10487592;28;19923;-77
2024/02/17 07:22:26;;;;;;;;;;;;;;;9.71;77.51;95615.34;10487419;28;20306;-77
2024/02/17 07:27:27;;;;;;;;;;;;;;;10.14;75.73;95611.09;10485175;28;20285;-76
2024/02/17 07:32:29;;;;;;;;;;;;;;;9.45;84.67;95622.22;10488905;28;19916;-77
2024/02/17 07:37:29;;;;;;;;;;;;;;;9.84;85.53;95612.31;10477440;28;19923;-76
2024/02/17 07:42:30;;;;;;;;;;;;;;;10.62;75.67;95605.28;10479467;28;20318;-75
2024/02/17 07:47:33;;;;;;;;;;;;;;;11.63;64.72;95603.78;10481975;28;19927;-75
2024/02/17 07:52:34;;;;;;;;;;;;;;;10.74;72.11;95604.09;10466452;28;21595;-75
2024/02/17 07:57:35;;;;;;;;;;;;;;;11.09;66.26;95602.00;10485977;28;19974;-77
2024/02/17 08:02:37;;;;;;;;;;;;;;;11.62;65.01;95599.47;10488587;28;20521;-80
2024/02/17 08:07:37;;;;;;;;;;;;;;;12.86;58.59;95600.91;10488780;28;19994;-75
2024/02/17 08:12:37;;;;;;;;;;;;;;;12.64;59.96;95595.72;10489353;28;20037;-76
2024/02/17 08:17:38;;;;;;;;;;;;;;;11.75;64.78;95604.44;10490215;28;19920;-74
2024/02/17 08:22:38;;;;;;;;;;;;;;;11.26;70.94;95612.63;10492588;28;20382;-73
2024/02/17 08:27:41;;;;;;;;;;;;;;;10.66;76.30;95614.47;10496830;28;19924;-76
2024/02/17 08:32:41;;;;;;;;;;;;;;;10.68;80.86;95612.34;10501414;28;20391;-76
2024/02/17 08:37:41;;;;;;;;;;;;;;;10.60;78.85;95610.91;10501062;28;19912;-77
2024/02/17 08:42:42;;;;;;;;;;;;;;;10.46;81.23;95615.03;10500840;28;19912;-76
2024/02/17 08:47:42;;;;;;;;;;;;;;;10.49;80.96;95612.66;10502217;28;19920;-75
2024/02/17 08:52:42;;;;;;;;;;;;;;;10.69;82.82;95620.16;10491518;28;20413;-75
2024/02/17 08:57:42;;;;;;;;;;;;;;;10.76;81.97;95623.47;10497422;28;19982;-76
2024/02/17 09:02:44;;;;;;;;;;;;;;;11.06;80.48;95626.72;10494640;28;19920;-76
2024/02/17 09:07:45;;;;;;;;;;;;;;;11.29;80.07;95620.22;10495697;28;20663;-74
2024/02/17 09:12:45;;;;;;;;;;;;;;;11.25;76.91;95625.28;10496932;28;19916;-77
2024/02/17 09:17:46;;;;;;;;;;;;;;;11.59;72.98;95624.22;10496664;28;19912;-75
2024/02/17 09:22:47;;;;;;;;;;;;;;;11.84;74.66;95622.78;10496925;28;19969;-76
2024/02/17 09:27:48;;;;;;;;;;;;;;;12.39;65.65;95620.69;10487648;28;20753;-76
2024/02/17 09:32:48;;;;;;;;;;;;;;;12.79;64.15;95608.47;10494136;28;19978;-77
2024/02/17 09:37:48;;;;;;;;;;;;;;;13.10;61.33;95603.13;10496753;28;19916;-75
2024/02/17 09:42:50;;;;;;;;;;;;;;;13.52;59.87;95606.69;10495295;28;19920;-76
2024/02/17 09:47:53;;;;;;;;;;;;;;;14.01;55.78;95606.94;10482882;28;19916;-76
2024/02/17 09:52:54;;;;;;;;;;;;;;;14.62;52.42;95590.78;10495129;28;19975;-75
2024/02/17 09:57:54;;;;;;;;;;;;;;;14.98;51.73;95593.34;10495729;28;20265;-77
2024/02/17 10:02:57;;;;;;;;;;;;;;;15.59;48.38;95589.38;10494820;28;20354;-76
2024/02/17 10:07:58;;;;;;;;;;;;;;;17.06;44.55;95581.03;10490174;28;19920;-76
2024/02/17 10:12:58;;;;;;;;;;;;;;;19.69;39.78;95559.66;10474758;28;19916;-75
2024/02/17 10:17:59;;;;;;;;;;;;;;;22.07;35.12;95543.41;10493521;28;19954;-75
2024/02/17 10:22:59;;;;;;;;;;;;;;;24.22;31.63;95544.50;10486142;28;20032;-77
2024/02/17 10:28:01;;;;;;;;;;;;;;;25.56;29.47;95531.00;10477222;28;19920;-76
2024/02/17 10:33:04;;;;;;;;;;;;;;;26.19;28.17;95532.28;10479732;28;19939;-78
2024/02/17 10:38:06;;;;;;;;;;;;;;;25.97;27.71;95530.91;10489243;28;19977;-75
2024/02/17 10:43:06;;;;;;;;;;;;;;;26.51;26.42;95528.72;10492233;28;19915;-76
2024/02/17 10:48:10;;;;;;;;;;;;;;;25.88;26.60;95530.25;10491769;28;19916;-76
2024/02/17 10:53:16;;;;;;;;;;;;;;;26.59;26.67;95523.00;10495475;28;20386;-76
2024/02/17 10:58:16;;;;;;;;;;;;;;;26.94;26.27;95518.72;10495962;28;19916;-77
2024/02/17 11:03:21;;;;;;;;;;;;;;;26.30;25.62;95515.22;10495398;28;20389;-76
2024/02/17 11:08:22;;;;;;;;;;;;;;;26.18;25.52;95505.06;10500276;28;20271;-77
2024/02/17 11:13:24;;;;;;;;;;;;;;;27.83;23.83;95494.13;10495402;28;19931;-75
2024/02/17 11:18:25;;;;;;;;;;;;;;;27.51;24.39;95482.50;10494764;28;20018;-75
2024/02/17 11:23:52;;;;;;;;;;;;;;;28.04;23.75;95479.94;10495031;28;20905;-76
2024/02/17 11:28:52;;;;;;;;;;;;;;;26.34;24.25;95483.03;10490426;28;20033;-76
2024/02/17 11:33:57;;;;;;;;;;;;;;;27.55;23.62;95477.84;10494988;28;20334;-76
2024/02/17 11:38:58;;;;;;;;;;;;;;;26.58;23.99;95468.25;10493552;28;19971;-75
2024/02/17 11:44:00;;;;;;;;;;;;;;;26.90;23.55;95465.44;10493505;28;19998;-76
2024/02/17 11:49:09;;;;;;;;;;;;;;;27.16;23.81;95466.78;10491916;28;19938;-75
2024/02/17 11:54:09;;;;;;;;;;;;;;;27.15;23.56;95463.19;10490780;28;19924;-77
2024/02/17 11:59:11;;;;;;;;;;;;;;;23.31;25.96;95451.94;10483198;28;19916;-74
2024/02/17 12:04:11;;;;;;;;;;;;;;;21.26;28.66;95458.28;10493423;28;20003;-75
2024/02/17 12:09:11;;;;;;;;;;;;;;;18.87;31.75;95459.69;10493047;28;19914;-73
2024/02/17 12:14:11;;;;;;;;;;;;;;;17.92;33.21;95469.28;10491966;28;19919;-75
2024/02/17 12:19:13;;;;;;;;;;;;;;;17.39;34.06;95465.03;10493282;28;20427;-75
2024/02/17 12:24:13;;;;;;;;;;;;;;;16.86;34.74;95466.16;10488452;28;19920;-73
2024/02/17 12:29:14;;;;;;;;;;;;;;;16.62;35.96;95468.97;10474548;28;19918;-72
2024/02/17 12:34:27;;;;;;;;;;;;;;;15.75;36.74;95468.09;10493733;28;19959;-73
2024/02/17 12:39:27;;;;;;;;;;;;;;;15.27;37.99;95466.13;10490383;28;19920;-72
2024/02/17 12:44:27;;;;;;;;;;;;;;;15.47;37.82;95465.13;10480938;28;19912;-73
2024/02/17 12:49:28;;;;;;;;;;;;;;;15.43;38.71;95461.38;10480799;28;19920;-73
2024/02/17 12:54:29;;;;;;;;;;;;;;;15.32;38.64;95462.56;10484657;28;19931;-73
2024/02/17 12:59:30;;;;;;;;;;;;;;;15.31;38.96;95464.47;10471630;28;20362;-72
2024/02/17 13:04:30;;;;;;;;;;;;;;;15.29;38.40;95468.56;10491149;28;19912;-73
2024/02/17 13:09:31;;;;;;;;;;;;;;;15.29;37.94;95473.97;10496411;28;19935;-73
2024/02/17 13:14:33;;;;;;;;;;;;;;;15.27;37.36;95470.75;10497324;28;19997;-73
2024/02/17 13:19:33;;;;;;;;;;;;;;;15.08;36.94;95487.69;10495981;28;19916;-73
2024/02/17 13:24:33;;;;;;;;;;;;;;;15.01;36.73;95474.50;10497580;28;19912;-73
2024/02/17 13:29:33;;;;;;;;;;;;;;;15.00;37.58;95478.28;10497398;28;19955;-72
2024/02/17 13:34:34;;;;;;;;;;;;;;;14.89;37.74;95467.81;10497692;28;19916;-73
2024/02/17 13:39:34;;;;;;;;;;;;;;;14.92;37.98;95469.97;10493882;28;19923;-72
2024/02/17 13:44:37;;;;;;;;;;;;;;;14.79;37.43;95466.81;10496162;28;20509;-73
2024/02/17 13:49:37;;;;;;;;;;;;;;;14.83;37.41;95467.03;10496459;28;20007;-72
2024/02/17 13:54:38;;;;;;;;;;;;;;;14.78;38.11;95461.69;10498226;28;19930;-72
2024/02/17 13:59:40;;;;;;;;;;;;;;;14.79;37.81;95471.41;10496334;28;20340;-73
2024/02/17 14:04:40;;;;;;;;;;;;;;;14.70;38.11;95473.91;10497792;28;19911;-72
2024/02/17 14:09:41;;;;;;;;;;;;;;;14.62;38.32;95463.63;10497599;28;19924;-72
2024/02/17 14:14:42;;;;;;;;;;;;;;;14.52;37.81;95470.72;10494126;28;19916;-72
2024/02/17 14:19:42;;;;;;;;;;;;;;;14.49;37.16;95471.28;10493523;28;19920;-72
2024/02/17 14:24:42;;;;;;;;;;;;;;;14.49;36.90;95482.09;10497970;28;19916;-72
2024/02/17 14:29:48;;;;;;;;;;;;;;;14.47;36.94;95476.19;10495867;28;19943;-72
2024/02/17 14:34:48;;;;;;;;;;;;;;;14.30;38.17;95478.41;10495769;28;19912;-72
2024/02/17 14:39:48;;;;;;;;;;;;;;;14.18;38.87;95479.56;10494697;28;20354;-72
2024/02/17 14:44:49;;;;;;;;;;;;;;;14.20;38.59;95487.38;10493972;28;19919;-72
2024/02/17 14:49:49;;;;;;;;;;;;;;;14.17;38.55;95487.94;10494009;28;19927;-73
2024/02/17 14:54:49;;;;;;;;;;;;;;;14.14;38.47;95483.91;10496368;28;19995;-73
2024/02/17 14:59:50;;;;;;;;;;;;;;;14.08;38.43;95476.91;10495582;28;19916;-73
2024/02/17 15:04:50;;;;;;;;;;;;;;;14.01;38.57;95484.50;10494315;28;19926;-73
2024/02/17 15:09:52;;;;;;;;;;;;;;;13.94;38.92;95478.56;10494611;28;19912;-72
2024/02/17 15:14:52;;;;;;;;;;;;;;;13.82;38.77;95484.31;10494603;28;19919;-72
2024/02/17 15:19:53;;;;;;;;;;;;;;;13.71;38.99;95485.41;10494644;28;19999;-73
2024/02/17 15:24:53;;;;;;;;;;;;;;;13.56;39.31;95497.06;10491325;28;19992;-73
2024/02/17 15:29:54;;;;;;;;;;;;;;;13.40;41.38;95501.69;10486193;28;20366;-73
2024/02/17 15:34:55;;;;;;;;;;;;;;;13.04;44.41;95502.47;10489947;28;19953;-72
2024/02/17 15:39:56;;;;;;;;;;;;;;;12.75;46.17;95508.38;10491143;28;20425;-73
2024/02/17 15:44:56;;;;;;;;;;;;;;;12.39;49.46;95507.47;10490934;28;19923;-73
2024/02/17 15:49:56;;;;;;;;;;;;;;;12.19;51.34;95517.13;10490552;28;20298;-71
2024/02/17 15:54:57;;;;;;;;;;;;;;;12.03;52.44;95523.50;10481481;28;19990;-73
2024/02/17 15:59:57;;;;;;;;;;;;;;;11.88;53.04;95516.97;10473204;28;20351;-73
2024/02/17 16:04:57;;;;;;;;;;;;;;;11.76;54.17;95525.25;10464184;28;20402;-73
2024/02/17 16:09:58;;;;;;;;;;;;;;;11.73;56.01;95531.16;10470469;28;19969;-74
2024/02/17 16:14:59;;;;;;;;;;;;;;;11.61;57.68;95535.94;10475790;28;20521;-72
2024/02/17 16:20:01;;;;;;;;;;;;;;;11.46;60.19;95536.66;10475121;28;19934;-72
2024/02/17 16:25:03;;;;;;;;;;;;;;;11.26;59.82;95548.06;10480234;28;19916;-71
2024/02/17 16:30:04;;;;;;;;;;;;;;;11.17;63.52;95560.38;10494732;28;19923;-74
2024/02/17 16:35:04;;;;;;;;;;;;;;;10.77;68.94;95568.63;10477757;28;19916;-72
2024/02/17 16:40:05;;;;;;;;;;;;;;;10.21;66.80;95570.63;10479699;28;20443;-73
2024/02/17 16:45:06;;;;;;;;;;;;;;;10.27;67.66;95583.09;10483982;28;19913;-71
2024/02/17 16:50:07;;;;;;;;;;;;;;;10.05;67.90;95583.88;10498952;28;19924;-74
2024/02/17 16:55:07;;;;;;;;;;;;;;;10.02;68.28;95586.22;10483760;28;19920;-74
2024/02/17 17:00:08;;;;;;;;;;;;;;;10.02;69.81;95587.06;10477927;28;20267;-73
2024/02/17 17:05:08;;;;;;;;;;;;;;;9.89;70.93;95600.84;10491030;28;20364;-73
2024/02/17 17:10:09;;;;;;;;;;;;;;;9.75;73.26;95601.19;10482259;28;19973;-73
2024/02/17 17:15:09;;;;;;;;;;;;;;;9.61;75.78;95604.47;10487315;28;19926;-74
2024/02/17 17:20:10;;;;;;;;;;;;;;;9.53;76.92;95603.00;10483438;28;19916;-73
2024/02/17 17:25:10;;;;;;;;;;;;;;;9.54;77.13;95610.00;10483777;28;19923;-73
2024/02/17 17:30:10;;;;;;;;;;;;;;;9.33;79.48;95619.59;10487602;28;19912;-73
2024/02/17 17:35:12;;;;;;;;;;;;;;;9.05;80.09;95622.06;10456201;28;19974;-73
2024/02/17 17:40:13;;;;;;;;;;;;;;;8.95;78.85;95624.56;10486046;28;19916;-72
2024/02/17 17:45:13;;;;;;;;;;;;;;;8.99;83.42;95627.59;10459385;28;20679;-71
2024/02/17 17:50:16;;;;;;;;;;;;;;;9.05;82.67;95623.94;10487522;28;20371;-73
2024/02/17 17:55:16;;;;;;;;;;;;;;;9.03;82.75;95632.22;10483061;28;20057;-74
2024/02/17 18:00:20;;;;;;;;;;;;;;;8.93;85.59;95639.25;10486831;28;20002;-76
2024/02/17 18:05:21;;;;;;;;;;;;;;;8.56;88.26;95643.13;10469740;28;19957;-76
2024/02/17 18:10:22;;;;;;;;;;;;;;;8.54;89.25;95643.38;10472536;28;19916;-77
2024/02/17 18:15:22;;;;;;;;;;;;;;;8.38;91.02;95650.25;10480381;28;20387;-75
2024/02/17 18:20:25;;;;;;;;;;;;;;;8.32;89.57;95667.28;10485469;28;19922;-76
2024/02/17 18:25:25;;;;;;;;;;;;;;;8.31;90.37;95660.28;10483589;28;19916;-76
2024/02/17 18:30:25;;;;;;;;;;;;;;;8.21;93.92;95662.75;10487399;28;19920;-78
2024/02/17 18:35:25;;;;;;;;;;;;;;;8.05;94.57;95666.94;10487488;28;19928;-75
2024/02/17 18:40:40;;;;;;;;;;;;;;;7.68;97.91;95681.38;10498152;28;19923;-88
2024/02/17 18:45:41;;;;;;;;;;;;;;;7.55;95.99;95670.06;10504001;28;20513;-79
2024/02/17 18:50:42;;;;;;;;;;;;;;;7.65;97.90;95687.19;10472994;28;19944;-77
2024/02/17 18:55:43;;;;;;;;;;;;;;;7.58;96.01;95683.81;10483520;28;20359;-78
2024/02/17 19:00:43;;;;;;;;;;;;;;;7.46;97.51;95688.31;10471767;28;20318;-84
2024/02/17 19:05:43;;;;;;;;;;;;;;;7.36;98.23;95681.66;10480498;28;19988;-78
2024/02/17 19:10:44;;;;;;;;;;;;;;;7.26;100.00;95692.09;10479561;28;19920;-89
2024/02/17 19:15:44;;;;;;;;;;;;;;;7.28;100.00;95702.56;10466593;28;19916;-81
2024/02/17 19:20:44;;;;;;;;;;;;;;;7.31;100.00;95700.28;10498282;28;19916;-78
2024/02/17 19:25:46;;;;;;;;;;;;;;;7.17;100.00;95706.84;10488147;28;19916;-77
2024/02/17 19:30:46;;;;;;;;;;;;;;;7.21;100.00;95710.69;10467089;28;19916;-76
2024/02/17 19:35:47;;;;;;;;;;;;;;;7.09;100.00;95715.16;10476155;28;19920;-78
2024/02/17 19:40:47;;;;;;;;;;;;;;;7.03;100.00;95730.25;10473670;28;20598;-77
2024/02/17 19:45:47;;;;;;;;;;;;;;;7.04;100.00;95729.22;10482156;28;19990;-78
2024/02/17 19:50:48;;;;;;;;;;;;;;;6.98;100.00;95728.28;10485924;28;20457;-81
2024/02/17 19:55:48;;;;;;;;;;;;;;;6.70;100.00;95723.50;10461096;28;19920;-74
2024/02/17 20:00:52;;;;;;;;;;;;;;;6.43;100.00;95739.81;10486421;28;19924;-78
2024/02/17 20:05:52;;;;;;;;;;;;;;;6.28;100.00;95734.84;10484126;28;19989;-81
2024/02/17 20:10:52;;;;;;;;;;;;;;;6.28;100.00;95736.66;10487503;28;19916;-74
2024/02/17 20:15:52;;;;;;;;;;;;;;;6.30;100.00;95737.28;10476534;28;20111;-79
2024/02/17 20:20:55;;;;;;;;;;;;;;;6.44;100.00;95740.63;10493801;28;20423;-83
2024/02/17 20:25:55;;;;;;;;;;;;;;;6.38;100.00;95745.00;10509760;28;19912;-80
2024/02/17 20:30:55;;;;;;;;;;;;;;;6.26;100.00;95744.91;10493076;28;19916;-75
2024/02/17 20:35:56;;;;;;;;;;;;;;;6.09;100.00;95750.00;10486692;28;20630;-75
2024/02/17 20:40:57;;;;;;;;;;;;;;;6.17;100.00;95748.91;10491660;28;19969;-78
2024/02/17 20:45:57;;;;;;;;;;;;;;;6.07;100.00;95753.91;10492012;28;19912;-77
2024/02/17 20:50:57;;;;;;;;;;;;;;;5.83;100.00;95761.69;10507801;28;19998;-84
2024/02/17 20:55:58;;;;;;;;;;;;;;;5.85;100.00;95764.13;10483669;28;20647;-80
2024/02/17 21:00:58;;;;;;;;;;;;;;;5.72;100.00;95771.22;10503859;28;19980;-77
2024/02/17 21:05:59;;;;;;;;;;;;;;;5.37;100.00;95773.50;10503509;28;20350;-78
2024/02/17 21:11:00;;;;;;;;;;;;;;;5.33;100.00;95782.94;10510781;28;19920;-79
2024/02/17 21:16:00;;;;;;;;;;;;;;;5.25;100.00;95778.69;10482378;28;19917;-74
2024/02/17 21:21:00;;;;;;;;;;;;;;;5.29;100.00;95780.72;10497483;28;20322;-77
2024/02/17 21:26:01;;;;;;;;;;;;;;;5.23;100.00;95786.91;10499159;28;19912;-75
2024/02/17 21:31:01;;;;;;;;;;;;;;;4.92;100.00;95785.00;10496515;28;20422;-78
2024/02/17 21:36:01;;;;;;;;;;;;;;;5.01;100.00;95790.91;10495068;28;19981;-76
2024/02/17 21:41:01;;;;;;;;;;;;;;;4.95;100.00;95795.22;10494571;28;19920;-77
2024/02/17 21:46:02;;;;;;;;;;;;;;;4.95;100.00;95789.91;10493474;28;20399;-77
2024/02/17 21:51:03;;;;;;;;;;;;;;;4.92;100.00;95788.47;10496801;28;20486;-76
2024/02/17 21:56:03;;;;;;;;;;;;;;;5.11;100.00;95780.63;10493206;28;19924;-78
2024/02/17 22:01:04;;;;;;;;;;;;;;;5.06;100.00;95788.41;10493635;28;20270;-77
2024/02/17 22:06:05;;;;;;;;;;;;;;;5.11;100.00;95792.09;10495723;28;20269;-77
2024/02/17 22:11:05;;;;;;;;;;;;;;;5.14;100.00;95786.31;10496170;28;19916;-77
2024/02/17 22:16:06;;;;;;;;;;;;;;;5.19;100.00;95798.19;10494571;28;19916;-77
2024/02/17 22:21:06;;;;;;;;;;;;;;;5.16;100.00;95798.63;10494707;28;19916;-77
2024/02/17 22:26:06;;;;;;;;;;;;;;;5.10;100.00;95805.63;10488292;28;19916;-77
2024/02/17 22:31:06;;;;;;;;;;;;;;;4.99;100.00;95804.44;10492026;28;19977;-77
2024/02/17 22:36:09;;;;;;;;;;;;;;;4.85;100.00;95803.66;10493294;28;19998;-77
2024/02/17 22:41:09;;;;;;;;;;;;;;;4.79;100.00;95807.97;10493734;28;19919;-76
2024/02/17 22:46:09;;;;;;;;;;;;;;;4.76;100.00;95815.59;10491744;28;20670;-77
2024/02/17 22:51:09;;;;;;;;;;;;;;;4.71;100.00;95810.88;10490670;28;19979;-76
2024/02/17 22:56:10;;;;;;;;;;;;;;;4.52;100.00;95820.56;10491827;28;19920;-76
2024/02/17 23:01:12;;;;;;;;;;;;;;;4.29;100.00;95815.69;10490824;28;19916;-76
2024/02/17 23:06:12;;;;;;;;;;;;;;;4.26;100.00;95810.78;10492891;28;20409;-76
2024/02/17 23:11:15;;;;;;;;;;;;;;;4.30;100.00;95803.19;10497547;28;19953;-83
2024/02/17 23:16:15;;;;;;;;;;;;;;;4.21;100.00;95806.06;10483848;28;19927;-85
2024/02/17 23:21:16;;;;;;;;;;;;;;;4.08;100.00;95814.88;10495398;28;19913;-86
2024/02/17 23:26:16;;;;;;;;;;;;;;;4.14;100.00;95815.09;10490764;28;19919;-85
2024/02/17 23:31:16;;;;;;;;;;;;;;;4.09;100.00;95816.50;10483506;28;20597;-85
2024/02/17 23:36:17;;;;;;;;;;;;;;;4.04;100.00;95808.31;10517579;28;19924;-86
2024/02/17 23:41:17;;;;;;;;;;;;;;;4.02;100.00;95813.03;10499222;28;20316;-84
2024/02/17 23:46:19;;;;;;;;;;;;;;;3.97;100.00;95807.50;10487821;28;19912;-86
2024/02/17 23:51:20;;;;;;;;;;;;;;;3.90;100.00;95812.81;10514262;28;19924;-85
2024/02/17 23:56:20;;;;;;;;;;;;;;;3.72;100.00;95815.28;10495355;28;19923;-85
